createdAt,value
2017-09-29T00:02:21.916Z,90.57
2017-09-29T00:04:50.923Z,90.66
2017-09-29T00:07:18.535Z,90.79
2017-09-29T00:09:46.517Z,90.90
2017-09-29T00:12:14.562Z,91.04
2017-09-29T00:14:42.262Z,91.03
2017-09-29T00:17:09.837Z,90.97
2017-09-29T00:19:37.405Z,91.04
2017-09-29T00:22:05.425Z,90.96
2017-09-29T00:24:33.373Z,90.95
2017-09-29T00:27:01.876Z,90.84
2017-09-29T00:29:29.823Z,91.04
2017-09-29T00:31:57.458Z,91.92
2017-09-29T00:34:26.082Z,92.30
2017-09-29T00:36:53.760Z,92.61
2017-09-29T00:39:21.359Z,92.62
2017-09-29T00:41:48.934Z,92.55
2017-09-29T00:44:17.938Z,92.70
2017-09-29T00:46:47.999Z,92.95
2017-09-29T00:49:16.008Z,92.69
2017-09-29T00:51:43.595Z,92.41
2017-09-29T00:54:11.492Z,92.18
2017-09-29T00:56:40.316Z,91.96
2017-09-29T00:59:08.296Z,92.08
2017-09-29T01:01:36.254Z,92.34
2017-09-29T01:04:03.816Z,92.64
2017-09-29T01:06:31.756Z,93.17
2017-09-29T01:08:59.459Z,93.24
2017-09-29T01:11:27.537Z,93.24
2017-09-29T01:13:55.526Z,92.93
2017-09-29T01:16:23.115Z,92.34
2017-09-29T01:18:50.715Z,92.26
2017-09-29T01:21:18.306Z,92.33
2017-09-29T01:23:45.898Z,92.34
2017-09-29T01:26:13.588Z,92.22
2017-09-29T01:28:41.193Z,92.15
2017-09-29T01:31:08.784Z,92.83
2017-09-29T01:33:36.385Z,93.42
2017-09-29T01:36:03.959Z,93.69
2017-09-29T01:38:31.537Z,93.81
2017-09-29T01:40:59.109Z,93.76
2017-09-29T01:43:26.690Z,93.97
2017-09-29T01:45:54.285Z,94.03
2017-09-29T01:48:21.862Z,94.33
2017-09-29T01:50:51.500Z,94.29
2017-09-29T01:53:19.077Z,94.17
2017-09-29T01:55:46.973Z,94.35
2017-09-29T01:58:15.965Z,94.55
2017-09-29T02:00:43.585Z,94.70
2017-09-29T02:03:11.154Z,94.83
2017-09-29T02:05:40.280Z,95.13
2017-09-29T02:08:07.853Z,95.32
2017-09-29T02:10:36.412Z,95.36
2017-09-29T02:13:04.404Z,95.34
2017-09-29T02:15:31.996Z,95.45
2017-09-29T02:17:59.835Z,95.51
2017-09-29T02:20:27.381Z,95.59
2017-09-29T02:22:56.097Z,95.76
2017-09-29T02:25:23.686Z,95.74
2017-09-29T02:27:51.241Z,95.67
2017-09-29T02:30:18.854Z,95.50
2017-09-29T02:32:47.650Z,95.55
2017-09-29T02:35:15.636Z,95.87
2017-09-29T02:37:43.185Z,96.26
2017-09-29T02:40:11.113Z,96.49
2017-09-29T02:42:38.686Z,96.65
2017-09-29T02:45:07.399Z,96.80
2017-09-29T02:47:36.016Z,96.91
2017-09-29T02:50:04.561Z,96.97
2017-09-29T02:52:32.179Z,97.02
2017-09-29T02:54:59.728Z,97.02
2017-09-29T02:57:37.580Z,97.04
2017-09-29T03:00:09.166Z,97.00
2017-09-29T03:02:41.064Z,96.81
2017-09-29T03:05:11.076Z,96.75
2017-09-29T03:07:38.676Z,96.80
2017-09-29T03:10:06.223Z,96.80
2017-09-29T03:12:37.177Z,96.76
2017-09-29T03:15:04.799Z,96.67
2017-09-29T03:17:32.380Z,96.49
2017-09-29T03:20:00.121Z,96.31
2017-09-29T03:22:27.692Z,96.06
2017-09-29T03:24:55.272Z,95.86
2017-09-29T03:27:22.837Z,95.73
2017-09-29T03:29:50.424Z,95.69
2017-09-29T03:32:19.236Z,95.68
2017-09-29T03:34:46.814Z,95.58
2017-09-29T03:37:14.402Z,95.33
2017-09-29T03:39:41.957Z,95.18
2017-09-29T03:42:10.316Z,95.24
2017-09-29T03:44:39.459Z,95.31
2017-09-29T03:47:08.480Z,95.50
2017-09-29T03:49:36.055Z,95.64
2017-09-29T03:52:07.005Z,95.78
2017-09-29T03:54:38.712Z,95.90
2017-09-29T03:57:09.899Z,95.95
2017-09-29T03:59:39.066Z,95.97
2017-09-29T04:02:08.151Z,95.87
2017-09-29T04:04:35.729Z,95.80
2017-09-29T04:07:03.709Z,95.71
2017-09-29T04:09:31.778Z,95.67
2017-09-29T04:11:59.707Z,95.74
2017-09-29T04:14:30.286Z,95.78
2017-09-29T04:16:57.885Z,95.83
2017-09-29T04:19:25.512Z,95.97
2017-09-29T04:21:53.151Z,96.09
2017-09-29T04:24:21.329Z,96.12
2017-09-29T04:26:49.350Z,96.05
2017-09-29T04:29:17.044Z,95.86
2017-09-29T04:31:45.076Z,95.75
2017-09-29T04:34:12.649Z,95.79
2017-09-29T04:36:40.254Z,95.78
2017-09-29T04:39:07.793Z,95.74
2017-09-29T04:41:35.354Z,95.80
2017-09-29T04:44:08.437Z,95.77
2017-09-29T04:46:36.391Z,95.63
2017-09-29T04:49:05.320Z,95.70
2017-09-29T04:51:34.611Z,95.47
2017-09-29T04:54:02.280Z,95.47
2017-09-29T04:56:29.851Z,95.21
2017-09-29T04:58:58.136Z,95.26
2017-09-29T05:01:25.852Z,95.14
2017-09-29T05:03:55.781Z,94.96
2017-09-29T05:06:23.806Z,94.95
2017-09-29T05:08:52.229Z,95.01
2017-09-29T05:11:19.801Z,95.18
2017-09-29T05:13:48.055Z,95.29
2017-09-29T05:16:15.609Z,95.45
2017-09-29T05:18:43.250Z,95.60
2017-09-29T05:21:10.827Z,95.49
2017-09-29T05:23:38.384Z,95.37
2017-09-29T05:26:05.979Z,95.28
2017-09-29T05:28:33.608Z,95.27
2017-09-29T05:31:01.221Z,95.28
2017-09-29T05:33:30.637Z,95.30
2017-09-29T05:35:58.277Z,95.57
2017-09-29T05:38:25.844Z,95.67
2017-09-29T05:40:53.405Z,95.66
2017-09-29T05:43:21.057Z,95.55
2017-09-29T05:45:50.391Z,95.37
2017-09-29T05:48:18.365Z,95.39
2017-09-29T05:50:46.889Z,95.15
2017-09-29T05:53:15.746Z,94.96
2017-09-29T05:55:43.342Z,94.96
2017-09-29T05:58:11.076Z,95.44
2017-09-29T06:00:38.832Z,95.73
2017-09-29T06:03:06.396Z,95.79
2017-09-29T06:05:35.527Z,95.70
2017-09-29T06:08:03.094Z,95.68
2017-09-29T06:10:30.642Z,95.44
2017-09-29T06:12:59.549Z,95.46
2017-09-29T06:15:29.540Z,95.48
2017-09-29T06:17:57.227Z,95.38
2017-09-29T06:20:25.250Z,95.51
2017-09-29T06:22:52.862Z,95.46
2017-09-29T06:25:20.478Z,95.34
2017-09-29T06:27:48.065Z,95.08
2017-09-29T06:30:15.704Z,94.94
2017-09-29T06:32:43.298Z,94.68
2017-09-29T06:35:12.282Z,94.47
2017-09-29T06:37:40.024Z,94.23
2017-09-29T06:40:07.640Z,94.14
2017-09-29T06:42:35.297Z,94.53
2017-09-29T06:45:02.872Z,94.75
2017-09-29T06:47:30.683Z,94.61
2017-09-29T06:49:58.647Z,94.51
2017-09-29T06:52:26.165Z,93.84
2017-09-29T06:54:54.057Z,93.93
2017-09-29T06:57:23.404Z,93.93
2017-09-29T06:59:51.421Z,93.94
2017-09-29T07:02:19.007Z,94.26
2017-09-29T07:04:47.765Z,94.11
2017-09-29T07:07:15.368Z,94.04
2017-09-29T07:09:42.926Z,94.05
2017-09-29T07:12:10.491Z,93.94
2017-09-29T07:14:38.087Z,93.88
2017-09-29T07:17:05.641Z,93.51
2017-09-29T07:19:33.492Z,93.48
2017-09-29T07:22:01.461Z,92.91
2017-09-29T07:24:45.131Z,92.33
2017-09-29T07:27:19.896Z,92.23
2017-09-29T07:29:50.578Z,92.37
2017-09-29T07:32:22.657Z,92.29
2017-09-29T07:34:50.266Z,92.01
2017-09-29T07:37:20.356Z,91.93
2017-09-29T07:39:48.090Z,91.79
2017-09-29T07:42:15.696Z,91.44
2017-09-29T07:44:43.284Z,90.80
2017-09-29T07:47:10.903Z,90.40
2017-09-29T07:49:38.511Z,90.34
2017-09-29T07:52:06.542Z,90.40
2017-09-29T07:54:34.120Z,90.11
2017-09-29T07:57:01.679Z,89.52
2017-09-29T07:59:30.722Z,87.93
2017-09-29T08:01:59.670Z,86.86
2017-09-29T08:04:27.673Z,86.89
2017-09-29T08:06:55.307Z,87.21
2017-09-29T08:09:23.038Z,86.64
2017-09-29T08:11:53.528Z,86.26
2017-09-29T08:14:21.128Z,86.43
2017-09-29T08:16:49.428Z,85.70
2017-09-29T08:19:17.025Z,84.35
2017-09-29T08:21:44.589Z,84.63
2017-09-29T08:24:12.625Z,83.58
2017-09-29T08:26:40.209Z,83.48
2017-09-29T08:29:07.810Z,84.17
2017-09-29T08:31:35.879Z,85.01
2017-09-29T08:34:09.035Z,84.77
2017-09-29T08:36:37.140Z,84.10
2017-09-29T08:39:04.723Z,84.57
2017-09-29T08:41:32.324Z,83.89
2017-09-29T08:44:01.196Z,83.24
2017-09-29T08:46:29.436Z,82.72
2017-09-29T08:48:59.023Z,83.57
2017-09-29T08:51:26.693Z,84.27
2017-09-29T08:53:54.243Z,83.29
2017-09-29T08:56:21.815Z,83.07
2017-09-29T08:58:49.441Z,83.39
2017-09-29T09:01:17.338Z,82.56
2017-09-29T09:03:44.910Z,81.93
2017-09-29T09:06:12.883Z,82.21
2017-09-29T09:08:40.516Z,82.04
2017-09-29T09:11:08.089Z,82.17
2017-09-29T09:13:37.162Z,82.79
2017-09-29T09:16:04.868Z,82.69
2017-09-29T09:18:32.534Z,80.87
2017-09-29T09:21:00.135Z,80.89
2017-09-29T09:23:28.183Z,80.65
2017-09-29T09:25:55.774Z,80.42
2017-09-29T09:28:24.938Z,80.78
2017-09-29T09:30:53.082Z,80.15
2017-09-29T09:33:21.115Z,79.54
2017-09-29T09:35:49.101Z,78.42
2017-09-29T09:38:16.689Z,78.17
2017-09-29T09:40:44.272Z,77.40
2017-09-29T09:43:11.887Z,77.41
2017-09-29T09:45:39.475Z,76.79
2017-09-29T09:48:07.035Z,77.41
2017-09-29T09:50:34.667Z,77.24
2017-09-29T09:53:05.829Z,76.62
2017-09-29T09:55:34.137Z,75.90
2017-09-29T09:58:02.429Z,74.80
2017-09-29T10:00:30.494Z,73.77
2017-09-29T10:02:58.052Z,74.07
2017-09-29T10:05:26.023Z,74.07
2017-09-29T10:07:53.609Z,73.49
2017-09-29T10:10:21.926Z,73.94
2017-09-29T10:12:49.881Z,73.87
2017-09-29T10:15:17.455Z,74.25
2017-09-29T10:17:45.071Z,74.97
2017-09-29T10:20:12.652Z,73.16
2017-09-29T10:22:40.576Z,73.13
2017-09-29T10:25:09.484Z,73.93
2017-09-29T10:27:37.754Z,73.48
2017-09-29T10:30:05.315Z,73.88
2017-09-29T10:32:32.889Z,72.97
2017-09-29T10:35:00.657Z,71.38
2017-09-29T10:37:29.895Z,71.32
2017-09-29T10:39:57.537Z,73.73
2017-09-29T10:42:27.186Z,72.81
2017-09-29T10:44:55.739Z,70.75
2017-09-29T10:47:24.279Z,69.22
2017-09-29T10:49:51.937Z,69.82
2017-09-29T10:52:21.340Z,68.96
2017-09-29T10:54:48.951Z,68.94
2017-09-29T10:57:16.559Z,69.72
2017-09-29T10:59:44.136Z,70.90
2017-09-29T11:02:13.153Z,71.46
2017-09-29T11:04:40.754Z,71.26
2017-09-29T11:07:08.332Z,69.03
2017-09-29T11:09:35.976Z,68.94
2017-09-29T11:12:03.565Z,68.91
2017-09-29T11:14:31.640Z,67.95
2017-09-29T11:16:59.372Z,67.79
2017-09-29T11:19:26.959Z,67.20
2017-09-29T11:21:54.919Z,68.37
2017-09-29T11:24:22.505Z,66.60
2017-09-29T11:26:50.097Z,64.84
2017-09-29T11:29:17.669Z,66.10
2017-09-29T11:31:45.398Z,62.77
2017-09-29T11:34:14.275Z,60.24
2017-09-29T11:36:42.440Z,59.88
2017-09-29T11:39:10.023Z,58.82
2017-09-29T11:41:37.592Z,58.17
2017-09-29T11:44:05.375Z,57.20
2017-09-29T11:46:32.948Z,58.85
2017-09-29T11:49:00.551Z,59.40
2017-09-29T11:51:28.126Z,60.99
2017-09-29T11:53:55.722Z,61.88
2017-09-29T11:56:23.332Z,58.71
2017-09-29T11:58:50.910Z,60.78
2017-09-29T12:01:20.352Z,60.55
2017-09-29T12:03:47.961Z,61.66
2017-09-29T12:06:15.696Z,59.54
2017-09-29T12:08:43.285Z,60.18
2017-09-29T12:11:10.925Z,61.80
2017-09-29T12:13:38.518Z,60.61
2017-09-29T12:16:06.482Z,61.72
2017-09-29T12:18:34.066Z,60.88
2017-09-29T12:21:07.233Z,61.05
2017-09-29T12:23:36.303Z,60.89
2017-09-29T12:26:04.470Z,59.26
2017-09-29T12:28:32.351Z,57.83
2017-09-29T12:31:00.296Z,58.90
2017-09-29T12:33:27.883Z,59.10
2017-09-29T12:35:55.476Z,60.88
2017-09-29T12:38:23.405Z,60.73
2017-09-29T12:40:51.001Z,61.73
2017-09-29T12:43:19.266Z,60.59
2017-09-29T12:45:46.875Z,60.24
2017-09-29T12:48:14.463Z,60.46
2017-09-29T12:50:42.089Z,59.68
2017-09-29T12:53:09.635Z,60.28
2017-09-29T12:55:37.764Z,59.87
2017-09-29T12:58:05.318Z,60.27
2017-09-29T13:00:32.906Z,61.20
2017-09-29T13:03:00.558Z,62.05
2017-09-29T13:05:28.120Z,61.27
2017-09-29T13:07:56.660Z,62.45
2017-09-29T13:10:24.218Z,63.52
2017-09-29T13:12:51.857Z,60.35
2017-09-29T13:15:20.857Z,61.81
2017-09-29T13:17:48.821Z,62.12
2017-09-29T13:20:16.415Z,62.24
2017-09-29T13:22:44.016Z,62.50
2017-09-29T13:25:11.605Z,61.65
2017-09-29T13:27:39.181Z,62.50
2017-09-29T13:30:09.287Z,62.66
2017-09-29T13:32:37.877Z,63.30
2017-09-29T13:35:05.428Z,60.74
2017-09-29T13:37:33.017Z,62.89
2017-09-29T13:40:00.572Z,62.85
2017-09-29T13:42:28.155Z,64.24
2017-09-29T13:44:55.738Z,63.36
2017-09-29T13:47:23.689Z,64.73
2017-09-29T13:49:51.637Z,64.96
2017-09-29T13:52:19.204Z,65.33
2017-09-29T13:54:46.817Z,65.43
2017-09-29T13:57:14.406Z,63.13
2017-09-29T13:59:42.059Z,64.22
2017-09-29T14:02:09.845Z,64.03
2017-09-29T14:04:37.838Z,63.49
2017-09-29T14:07:05.397Z,65.38
2017-09-29T14:09:32.968Z,64.00
2017-09-29T14:12:00.565Z,64.65
2017-09-29T14:14:28.147Z,65.41
2017-09-29T14:16:56.481Z,65.91
2017-09-29T14:19:25.949Z,67.34
2017-09-29T14:21:53.529Z,67.75
2017-09-29T14:24:21.115Z,67.75
2017-09-29T14:26:50.195Z,67.48
2017-09-29T14:29:17.786Z,69.22
2017-09-29T14:31:45.361Z,69.31
2017-09-29T14:34:12.947Z,70.04
2017-09-29T14:36:40.496Z,70.77
2017-09-29T14:39:08.110Z,71.31
2017-09-29T14:41:36.029Z,71.27
2017-09-29T14:44:04.063Z,71.76
2017-09-29T14:46:31.655Z,72.11
2017-09-29T14:48:59.214Z,72.96
2017-09-29T14:51:26.815Z,72.71
2017-09-29T14:53:54.801Z,73.15
2017-09-29T14:56:22.395Z,73.29
2017-09-29T14:58:50.621Z,73.81
2017-09-29T15:01:18.234Z,74.64
2017-09-29T15:03:45.821Z,74.19
2017-09-29T15:06:14.917Z,74.64
2017-09-29T15:08:42.526Z,74.56
2017-09-29T15:11:10.106Z,74.95
2017-09-29T15:13:38.422Z,74.98
2017-09-29T15:16:06.023Z,74.81
2017-09-29T15:18:33.617Z,75.12
2017-09-29T15:21:01.197Z,72.77
2017-09-29T15:23:28.980Z,72.05
2017-09-29T15:25:56.967Z,71.87
2017-09-29T15:28:24.521Z,72.80
2017-09-29T15:30:52.462Z,71.56
2017-09-29T15:33:20.461Z,71.83
2017-09-29T15:35:48.429Z,71.56
2017-09-29T15:38:16.377Z,72.49
2017-09-29T15:40:44.403Z,72.55
2017-09-29T15:43:12.649Z,73.39
2017-09-29T15:45:40.218Z,72.78
2017-09-29T15:48:07.848Z,72.56
2017-09-29T15:50:35.559Z,72.75
2017-09-29T15:53:03.160Z,73.16
2017-09-29T15:55:30.742Z,73.53
2017-09-29T15:57:58.325Z,73.83
2017-09-29T16:00:25.945Z,73.94
2017-09-29T16:02:53.642Z,74.19
2017-09-29T16:05:22.052Z,74.26
2017-09-29T16:07:49.623Z,74.38
2017-09-29T16:10:17.233Z,74.28
2017-09-29T16:12:46.408Z,74.57
2017-09-29T16:15:14.360Z,74.24
2017-09-29T16:17:42.522Z,74.46
2017-09-29T16:20:10.144Z,74.65
2017-09-29T16:22:37.763Z,74.88
2017-09-29T16:25:06.070Z,75.10
2017-09-29T16:27:33.720Z,75.32
2017-09-29T16:30:02.257Z,75.41
2017-09-29T16:32:29.893Z,75.61
2017-09-29T16:34:57.461Z,75.56
2017-09-29T16:37:26.257Z,75.86
2017-09-29T16:39:53.841Z,76.24
2017-09-29T16:42:22.770Z,75.96
2017-09-29T16:44:50.874Z,75.62
2017-09-29T16:47:20.000Z,75.85
2017-09-29T16:49:49.009Z,76.15
2017-09-29T16:52:16.593Z,76.61
2017-09-29T16:54:44.192Z,76.97
2017-09-29T16:57:11.804Z,77.67
2017-09-29T16:59:39.365Z,77.75
2017-09-29T17:02:06.920Z,78.10
2017-09-29T17:04:34.544Z,78.63
2017-09-29T17:07:02.115Z,78.85
2017-09-29T17:09:29.852Z,79.81
2017-09-29T17:11:57.438Z,79.57
2017-09-29T17:14:25.097Z,79.59
2017-09-29T17:16:52.715Z,80.04
2017-09-29T17:19:20.770Z,80.75
2017-09-29T17:21:48.416Z,80.82
2017-09-29T17:24:16.333Z,81.45
2017-09-29T17:26:45.372Z,81.88
2017-09-29T17:29:13.429Z,82.79
2017-09-29T17:31:41.185Z,82.91
2017-09-29T17:34:08.783Z,82.95
2017-09-29T17:36:37.123Z,83.14
2017-09-29T17:39:06.741Z,84.10
2017-09-29T17:41:34.340Z,84.29
2017-09-29T17:44:02.373Z,84.29
2017-09-29T17:46:29.941Z,84.98
2017-09-29T17:49:00.056Z,85.45
2017-09-29T17:51:28.698Z,85.17
2017-09-29T17:53:56.285Z,85.72
2017-09-29T17:56:23.910Z,85.53
2017-09-29T17:58:51.524Z,85.62
2017-09-29T18:01:19.635Z,85.68
2017-09-29T18:03:47.597Z,85.81
2017-09-29T18:06:16.551Z,85.60
2017-09-29T18:08:44.152Z,85.83
2017-09-29T18:11:12.466Z,85.46
2017-09-29T18:13:40.086Z,85.60
2017-09-29T18:16:11.599Z,85.46
2017-09-29T18:18:39.240Z,85.84
2017-09-29T18:21:07.725Z,86.12
2017-09-29T18:23:37.037Z,86.91
2017-09-29T18:26:05.066Z,86.49
2017-09-29T18:28:32.817Z,86.48
2017-09-29T18:31:00.417Z,86.24
2017-09-29T18:33:28.011Z,86.41
2017-09-29T18:35:55.638Z,86.25
2017-09-29T18:38:23.268Z,86.30
2017-09-29T18:41:01.007Z,86.82
2017-09-29T18:43:32.883Z,86.73
2017-09-29T18:46:16.767Z,87.00
2017-09-29T18:51:16.996Z,87.51
2017-09-29T18:53:45.329Z,87.44
2017-09-29T18:56:14.542Z,87.27
2017-09-29T18:58:42.489Z,87.83
2017-09-29T19:01:11.469Z,87.95
2017-09-29T19:03:40.525Z,88.14
2017-09-29T19:06:08.137Z,88.09
2017-09-29T19:08:37.073Z,88.07
2017-09-29T19:11:04.690Z,87.89
2017-09-29T19:13:32.312Z,88.09
2017-09-29T19:15:59.958Z,88.68
2017-09-29T19:18:27.560Z,88.89
2017-09-29T19:20:55.379Z,89.24
2017-09-29T19:23:23.010Z,89.27
2017-09-29T19:25:53.656Z,89.16
2017-09-29T19:28:22.011Z,89.11
2017-09-29T19:30:49.597Z,89.28
2017-09-29T19:33:17.219Z,89.31
2017-09-29T19:35:46.761Z,89.22
2017-09-29T19:38:15.862Z,89.14
2017-09-29T19:40:43.470Z,89.21
2017-09-29T19:43:15.428Z,89.16
2017-09-29T19:45:43.411Z,89.16
2017-09-29T19:48:11.546Z,89.67
2017-09-29T19:50:39.119Z,89.76
2017-09-29T19:53:06.925Z,89.60
2017-09-29T19:55:34.591Z,89.44
2017-09-29T19:58:02.196Z,89.60
2017-09-29T20:00:29.830Z,90.16
2017-09-29T20:03:01.441Z,90.34
2017-09-29T20:05:31.194Z,90.42
2017-09-29T20:07:58.786Z,90.64
2017-09-29T20:10:28.999Z,90.61
2017-09-29T20:12:56.606Z,90.64
2017-09-29T20:15:24.239Z,90.55
2017-09-29T20:17:53.100Z,90.59
2017-09-29T20:20:23.474Z,90.69
2017-09-29T20:22:53.388Z,90.59
2017-09-29T20:25:20.944Z,90.78
2017-09-29T20:27:48.542Z,90.82
2017-09-29T20:30:16.179Z,91.37
2017-09-29T20:32:43.738Z,91.15
2017-09-29T20:35:13.916Z,91.09
2017-09-29T20:37:42.333Z,90.97
2017-09-29T20:40:13.169Z,91.13
2017-09-29T20:42:43.020Z,91.19
2017-09-29T20:45:10.626Z,91.13
2017-09-29T20:47:42.783Z,91.04
2017-09-29T20:50:10.357Z,91.43
2017-09-29T20:52:38.980Z,91.33
2017-09-29T20:55:06.548Z,91.12
2017-09-29T20:57:37.195Z,91.35
2017-09-29T21:00:07.085Z,91.31
2017-09-29T21:02:34.689Z,91.42
2017-09-29T21:05:02.757Z,91.46
2017-09-29T21:07:31.544Z,91.56
2017-09-29T21:09:59.139Z,91.63
2017-09-29T21:12:29.434Z,91.53
2017-09-29T21:14:57.168Z,91.52
2017-09-29T21:17:26.141Z,91.35
2017-09-29T21:19:53.735Z,91.32
2017-09-29T21:22:21.344Z,91.22
2017-09-29T21:24:50.293Z,91.23
2017-09-29T21:27:18.516Z,91.38
2017-09-29T21:29:46.501Z,91.35
2017-09-29T21:32:16.923Z,91.42
2017-09-29T21:34:44.497Z,91.30
2017-09-29T21:37:12.090Z,91.32
2017-09-29T21:39:40.059Z,91.33
2017-09-29T21:42:07.643Z,91.48
2017-09-29T21:44:35.239Z,91.49
2017-09-29T21:47:03.575Z,91.60
2017-09-29T21:49:31.148Z,91.97
2017-09-29T21:51:58.758Z,91.70
2017-09-29T21:54:26.356Z,91.72
2017-09-29T21:56:53.985Z,91.80
2017-09-29T21:59:22.822Z,91.76
2017-09-29T22:01:50.432Z,91.64
2017-09-29T22:04:18.411Z,91.55
2017-09-29T22:06:45.999Z,91.58
2017-09-29T22:09:13.577Z,91.44
2017-09-29T22:11:41.610Z,91.34
2017-09-29T22:14:09.191Z,91.33
2017-09-29T22:16:36.779Z,91.29
2017-09-29T22:19:04.374Z,91.34
2017-09-29T22:21:31.963Z,91.63
2017-09-29T22:23:59.553Z,91.67
2017-09-29T22:26:27.149Z,91.75
2017-09-29T22:28:55.047Z,91.69
2017-09-29T22:31:22.607Z,91.58
2017-09-29T22:33:51.004Z,91.58
2017-09-29T22:36:18.607Z,91.73
2017-09-29T22:38:46.176Z,91.79
2017-09-29T22:41:13.772Z,91.74
2017-09-29T22:43:41.701Z,91.66
2017-09-29T22:46:09.316Z,91.67
2017-09-29T22:48:37.234Z,91.71
2017-09-29T22:51:05.241Z,91.89
2017-09-29T22:53:33.616Z,92.00
2017-09-29T22:56:01.204Z,92.16
2017-09-29T22:58:30.534Z,92.19
2017-09-29T23:00:58.121Z,92.24
2017-09-29T23:03:25.712Z,92.36
2017-09-29T23:05:53.283Z,92.40
2017-09-29T23:08:21.057Z,92.28
2017-09-29T23:10:49.469Z,92.23
2017-09-29T23:13:17.022Z,92.21
2017-09-29T23:15:44.622Z,92.36
2017-09-29T23:18:12.184Z,92.49
2017-09-29T23:20:43.300Z,92.54
2017-09-29T23:23:10.904Z,92.61
2017-09-29T23:25:38.507Z,92.79
2017-09-29T23:28:06.107Z,93.02
2017-09-29T23:30:33.710Z,93.14
2017-09-29T23:33:01.266Z,93.28
2017-09-29T23:35:31.557Z,93.41
2017-09-29T23:37:59.156Z,93.55
2017-09-29T23:40:28.433Z,93.71
2017-09-29T23:42:56.361Z,93.83
2017-09-29T23:45:24.537Z,93.88
2017-09-29T23:47:52.127Z,93.82
2017-09-29T23:50:21.314Z,93.75
2017-09-29T23:52:48.908Z,93.81
2017-09-29T23:55:16.957Z,93.88
2017-09-29T23:57:44.528Z,93.95
